METAR Formatted Surface Weather Observation
Issued by NWS Corpus Christi, TX

Home | Current Version | Previous Version | Text Only | Print | Product List | Glossary On
Versions: 1 2 3 4 5 6 7 8 9 10 11 12 13
000
SAUS44 KCRP 011552
MTRVCT
METAR KVCT 011551Z 34009KT 4SM BR OVC003 07/07 A3024 RMK AO2 SLP241
T00720072



USA.gov is the U.S. government's official web portal to all federal, state and local government web resources and services.